createdAt,value
2018-05-03T00:00:00.145Z,4.87
2018-05-03T00:02:28.975Z,4.97
2018-05-03T00:04:58.565Z,6.13
2018-05-03T00:07:27.409Z,5.00
2018-05-03T00:09:56.227Z,5.90
2018-05-03T00:12:25.063Z,5.13
2018-05-03T00:14:53.902Z,5.40
2018-05-03T00:17:23.653Z,5.10
2018-05-03T00:19:52.916Z,6.00
2018-05-03T00:22:21.770Z,5.70
2018-05-03T00:24:50.623Z,5.20
2018-05-03T00:27:20.226Z,5.63
2018-05-03T00:29:49.812Z,5.43
2018-05-03T00:32:20.059Z,5.50
2018-05-03T00:34:49.661Z,5.17
2018-05-03T00:37:19.270Z,5.50
2018-05-03T00:39:48.340Z,4.73
2018-05-03T00:42:17.177Z,5.90
2018-05-03T00:44:46.021Z,5.00
2018-05-03T00:47:14.878Z,5.23
2018-05-03T00:49:43.708Z,6.33
2018-05-03T00:52:12.551Z,4.93
2018-05-03T00:54:49.203Z,5.23
2018-05-03T00:57:18.055Z,5.40
2018-05-03T00:59:46.898Z,5.07
2018-05-03T01:04:51.777Z,5.77
2018-05-03T01:07:21.373Z,5.90
2018-05-03T01:09:50.978Z,5.33
2018-05-03T01:12:20.586Z,5.30
2018-05-03T01:14:50.193Z,5.90
2018-05-03T01:17:20.694Z,5.37
2018-05-03T01:19:49.523Z,5.73
2018-05-03T01:22:18.347Z,6.10
2018-05-03T01:24:47.184Z,6.63
2018-05-03T01:27:17.532Z,6.20
2018-05-03T01:29:46.370Z,5.60
2018-05-03T01:32:15.203Z,6.50
2018-05-03T01:34:44.054Z,6.03
2018-05-03T01:37:12.880Z,6.03
2018-05-03T01:39:41.781Z,5.77
2018-05-03T01:42:10.596Z,5.93
2018-05-03T01:44:39.443Z,5.80
2018-05-03T01:47:08.272Z,5.67
2018-05-03T01:49:37.101Z,6.40
2018-05-03T01:52:06.928Z,5.80
2018-05-03T01:54:36.528Z,5.53
2018-05-03T01:57:06.119Z,5.80
2018-05-03T01:59:34.964Z,5.13
2018-05-03T02:02:04.668Z,5.50
2018-05-03T02:04:33.495Z,5.60
2018-05-03T02:07:02.478Z,6.30
2018-05-03T02:09:31.333Z,5.83
2018-05-03T02:12:00.159Z,6.13
2018-05-03T02:14:28.992Z,5.63
2018-05-03T02:16:57.833Z,5.97
2018-05-03T02:19:26.659Z,5.60
2018-05-03T02:21:55.749Z,6.20
2018-05-03T02:24:25.496Z,6.17
2018-05-03T02:26:54.254Z,6.03
2018-05-03T02:29:23.857Z,6.00
2018-05-03T02:31:53.478Z,6.07
2018-05-03T02:34:22.302Z,6.10
2018-05-03T02:36:51.161Z,6.10
2018-05-03T02:39:20.820Z,7.33
2018-05-03T02:41:50.090Z,6.97
2018-05-03T02:44:18.936Z,6.30
2018-05-03T02:46:47.753Z,6.00
2018-05-03T02:49:16.589Z,5.67
2018-05-03T02:51:45.433Z,6.10
2018-05-03T02:54:14.319Z,6.90
2018-05-03T02:56:43.137Z,6.60
2018-05-03T02:59:24.010Z,6.07
2018-05-03T03:01:58.666Z,7.43
2018-05-03T03:04:45.271Z,7.80
2018-05-03T03:10:42.551Z,6.47
2018-05-03T03:13:32.785Z,7.90
2018-05-03T03:16:19.193Z,8.30
2018-05-03T03:22:27.704Z,9.63
2018-05-03T03:25:20.265Z,10.37
2018-05-03T03:28:06.679Z,8.83
2018-05-03T03:30:53.821Z,9.80
2018-05-03T03:33:35.486Z,10.70
2018-05-03T03:36:16.266Z,13.00
2018-05-03T03:38:57.749Z,12.80
2018-05-03T03:41:38.175Z,12.63
2018-05-03T03:44:19.637Z,13.57
2018-05-03T03:46:48.494Z,12.40
2018-05-03T03:49:18.092Z,14.50
2018-05-03T03:51:47.331Z,14.10
2018-05-03T03:54:16.181Z,15.53
2018-05-03T03:56:45.880Z,15.27
2018-05-03T03:59:14.692Z,15.43
2018-05-03T04:01:43.996Z,15.33
2018-05-03T04:04:13.596Z,15.47
2018-05-03T04:06:43.220Z,15.87
2018-05-03T04:09:12.820Z,16.30
2018-05-03T04:11:42.442Z,15.87
2018-05-03T04:14:12.056Z,17.73
2018-05-03T04:16:40.925Z,17.80
2018-05-03T04:19:22.599Z,17.00
2018-05-03T04:22:03.226Z,18.70
2018-05-03T04:24:44.017Z,17.47
2018-05-03T04:27:12.842Z,19.57
2018-05-03T04:29:42.424Z,17.67
2018-05-03T04:32:12.208Z,17.97
2018-05-03T04:34:41.072Z,19.30
2018-05-03T04:37:09.924Z,18.43
2018-05-03T04:39:39.545Z,21.13
2018-05-03T04:42:09.169Z,21.20
2018-05-03T04:44:38.021Z,19.67
2018-05-03T04:47:06.851Z,21.37
2018-05-03T04:49:35.709Z,21.30
2018-05-03T04:52:05.317Z,20.60
2018-05-03T04:54:34.935Z,22.63
2018-05-03T04:57:04.546Z,22.30
2018-05-03T04:59:33.462Z,23.03
2018-05-03T05:02:02.325Z,24.60
2018-05-03T05:04:31.928Z,23.20
2018-05-03T05:07:00.881Z,25.20
2018-05-03T05:09:30.509Z,24.17
2018-05-03T05:11:59.370Z,23.30
2018-05-03T05:14:28.984Z,23.93
2018-05-03T05:16:59.037Z,24.90
2018-05-03T05:19:27.877Z,24.10
2018-05-03T05:21:57.490Z,23.40
2018-05-03T05:24:27.105Z,24.47
2018-05-03T05:26:55.968Z,23.30
2018-05-03T05:29:24.799Z,21.57
2018-05-03T05:31:53.663Z,23.30
2018-05-03T05:34:23.362Z,23.10
2018-05-03T05:36:52.290Z,22.53
2018-05-03T05:39:21.138Z,22.63
2018-05-03T05:41:50.002Z,22.47
2018-05-03T05:44:18.904Z,22.10
2018-05-03T05:46:48.145Z,22.27
2018-05-03T05:49:16.981Z,21.40
2018-05-03T05:51:45.829Z,21.20
2018-05-03T05:54:14.681Z,20.93
2018-05-03T05:56:43.593Z,19.27
2018-05-03T05:59:12.400Z,20.97
2018-05-03T06:01:41.241Z,17.40
2018-05-03T06:04:10.092Z,16.40
2018-05-03T06:06:38.948Z,16.37
2018-05-03T06:09:07.792Z,16.77
2018-05-03T06:11:38.158Z,15.83
2018-05-03T06:14:07.002Z,14.20
2018-05-03T06:16:35.850Z,14.63
2018-05-03T06:19:04.706Z,13.77
2018-05-03T06:21:34.415Z,13.30
2018-05-03T06:24:03.240Z,12.77
2018-05-03T06:26:32.077Z,11.07
2018-05-03T06:29:00.933Z,12.40
2018-05-03T06:31:29.777Z,11.77
2018-05-03T06:34:00.226Z,11.03
2018-05-03T06:36:29.108Z,14.73
2018-05-03T06:38:58.783Z,9.20
2018-05-03T06:41:28.329Z,9.00
2018-05-03T06:43:57.789Z,8.60
2018-05-03T06:46:26.637Z,12.60
2018-05-03T06:48:55.472Z,8.80
2018-05-03T06:51:26.065Z,9.10
2018-05-03T06:53:54.827Z,8.23
2018-05-03T06:56:23.717Z,8.10
2018-05-03T06:58:52.539Z,7.90
2018-05-03T07:01:21.383Z,8.00
2018-05-03T07:03:50.224Z,7.80
2018-05-03T07:06:19.102Z,7.63
2018-05-03T07:08:47.906Z,6.57
2018-05-03T07:11:16.758Z,6.33
2018-05-03T07:13:45.603Z,6.40
2018-05-03T07:16:14.496Z,5.57
2018-05-03T07:18:43.400Z,5.70
2018-05-03T07:21:12.256Z,5.30
2018-05-03T07:23:41.133Z,4.70
2018-05-03T07:26:09.989Z,4.80
2018-05-03T07:28:40.304Z,4.63
2018-05-03T07:31:09.940Z,5.30
2018-05-03T07:33:38.780Z,5.67
2018-05-03T07:36:07.621Z,4.30
2018-05-03T07:38:36.471Z,4.30
2018-05-03T07:41:05.312Z,4.97
2018-05-03T07:43:34.170Z,4.13
2018-05-03T07:46:03.872Z,4.00
2018-05-03T07:48:33.546Z,3.60
2018-05-03T07:51:02.298Z,4.73
2018-05-03T07:53:31.141Z,4.03
2018-05-03T07:56:00.745Z,4.27
2018-05-03T07:58:29.591Z,4.03
2018-05-03T08:00:58.426Z,4.70
2018-05-03T08:03:27.336Z,3.57
2018-05-03T08:05:56.928Z,3.70
2018-05-03T08:08:25.806Z,3.20
2018-05-03T08:10:54.614Z,3.60
2018-05-03T08:13:23.459Z,3.47
2018-05-03T08:15:53.041Z,3.93
2018-05-03T08:18:21.890Z,3.40
2018-05-03T08:20:50.716Z,3.70
2018-05-03T08:23:19.565Z,3.43
2018-05-03T08:25:48.419Z,3.60
2018-05-03T08:28:18.020Z,3.90
2018-05-03T08:30:46.850Z,3.30
2018-05-03T08:33:15.691Z,4.03
2018-05-03T08:35:44.525Z,3.10
2018-05-03T08:38:13.366Z,3.10
2018-05-03T08:40:42.222Z,3.63
2018-05-03T08:43:11.132Z,2.93
2018-05-03T08:45:39.948Z,3.70
2018-05-03T08:48:09.568Z,2.90
2018-05-03T08:50:38.398Z,3.03
2018-05-03T08:53:07.249Z,3.37
2018-05-03T08:55:36.764Z,3.30
2018-05-03T08:58:05.573Z,3.73
2018-05-03T09:00:34.465Z,3.50
2018-05-03T09:03:03.287Z,3.00
2018-05-03T09:05:33.668Z,3.03
2018-05-03T09:08:02.527Z,3.50
2018-05-03T09:10:31.387Z,3.53
2018-05-03T09:13:00.204Z,3.47
2018-05-03T09:15:29.046Z,3.27
2018-05-03T09:17:57.868Z,3.13
2018-05-03T09:20:27.476Z,3.50
2018-05-03T09:22:57.086Z,2.80
2018-05-03T09:25:26.736Z,3.30
2018-05-03T09:27:55.553Z,4.20
2018-05-03T09:30:24.381Z,3.13
2018-05-03T09:32:53.241Z,3.70
2018-05-03T09:35:22.060Z,3.97
2018-05-03T09:37:51.348Z,3.40
2018-05-03T09:40:20.156Z,3.53
2018-05-03T09:42:49.015Z,3.20
2018-05-03T09:45:19.348Z,3.60
2018-05-03T09:47:48.965Z,3.20
2018-05-03T09:50:17.785Z,3.73
2018-05-03T09:52:46.637Z,2.80
2018-05-03T09:55:16.679Z,3.70
2018-05-03T09:57:45.510Z,3.10
2018-05-03T10:00:14.329Z,2.70
2018-05-03T10:02:43.937Z,2.80
2018-05-03T10:05:13.961Z,2.80
2018-05-03T10:07:43.565Z,3.27
2018-05-03T10:10:12.397Z,3.50
2018-05-03T10:12:41.232Z,3.10
2018-05-03T10:15:10.071Z,3.43
2018-05-03T10:17:38.897Z,3.07
2018-05-03T10:20:07.720Z,2.90
2018-05-03T10:22:36.595Z,3.73
2018-05-03T10:25:06.625Z,2.83
2018-05-03T10:27:35.435Z,3.80
2018-05-03T10:30:04.296Z,3.40
2018-05-03T10:32:33.121Z,4.53
2018-05-03T10:35:01.965Z,3.70
2018-05-03T10:37:30.812Z,4.07
2018-05-03T10:39:59.732Z,4.10
2018-05-03T10:42:28.552Z,3.83
2018-05-03T10:44:57.393Z,4.10
2018-05-03T10:47:27.019Z,3.87
2018-05-03T10:49:56.636Z,3.90
2018-05-03T10:52:25.457Z,3.37
2018-05-03T10:54:54.284Z,3.43
2018-05-03T10:57:23.931Z,3.90
2018-05-03T10:59:53.976Z,3.67
2018-05-03T11:02:23.505Z,3.80
2018-05-03T11:04:52.347Z,2.87
2018-05-03T11:07:21.177Z,2.80
2018-05-03T11:09:50.910Z,3.10
2018-05-03T11:12:19.753Z,2.90
2018-05-03T11:14:48.621Z,2.80
2018-05-03T11:17:17.453Z,3.50
2018-05-03T11:19:46.308Z,3.63
2018-05-03T11:22:15.125Z,3.80
2018-05-03T11:24:44.753Z,3.37
2018-05-03T11:27:14.105Z,3.23
2018-05-03T11:29:43.050Z,3.40
2018-05-03T11:41:56.901Z,3.40
2018-05-03T11:44:26.481Z,3.70
2018-05-03T11:46:55.330Z,3.10
2018-05-03T11:49:24.171Z,3.20
2018-05-03T11:51:53.008Z,3.33
2018-05-03T11:54:22.740Z,3.70
2018-05-03T11:56:51.614Z,3.43
2018-05-03T11:59:20.517Z,3.87
2018-05-03T12:01:49.315Z,3.83
2018-05-03T12:04:18.179Z,3.53
2018-05-03T12:06:47.101Z,3.33
2018-05-03T12:09:15.930Z,2.77
2018-05-03T12:11:44.823Z,3.10
2018-05-03T12:14:14.389Z,3.27
2018-05-03T12:16:43.230Z,3.87
2018-05-03T12:19:13.062Z,3.30
2018-05-03T12:21:42.663Z,3.90
2018-05-03T12:24:11.506Z,3.27
2018-05-03T12:26:40.359Z,3.00
2018-05-03T12:29:09.979Z,3.33
2018-05-03T12:31:41.349Z,3.07
2018-05-03T12:34:10.198Z,2.70
2018-05-03T12:36:39.374Z,3.30
2018-05-03T12:39:08.223Z,3.20
2018-05-03T12:41:37.403Z,3.30
2018-05-03T12:44:06.240Z,3.40
2018-05-03T12:46:35.085Z,2.93
2018-05-03T12:49:03.931Z,3.00
2018-05-03T12:51:32.761Z,2.57
2018-05-03T12:54:01.582Z,3.17
2018-05-03T12:56:30.433Z,3.80
2018-05-03T12:59:00.133Z,3.40
2018-05-03T13:01:29.748Z,3.17
2018-05-03T13:03:58.581Z,3.33
2018-05-03T13:06:27.429Z,2.90
2018-05-03T13:08:56.293Z,2.87
2018-05-03T13:11:25.905Z,2.77
2018-05-03T13:13:54.731Z,3.07
2018-05-03T13:16:24.334Z,2.87
2018-05-03T13:18:53.954Z,2.80
2018-05-03T13:21:23.584Z,3.10
2018-05-03T13:23:52.436Z,2.93
2018-05-03T13:26:21.281Z,2.93
2018-05-03T13:28:50.142Z,3.10
2018-05-03T13:31:19.777Z,2.60
2018-05-03T13:33:48.604Z,3.00
2018-05-03T13:36:18.216Z,2.30
2018-05-03T13:38:47.082Z,4.60
2018-05-03T13:41:15.961Z,5.43
2018-05-03T13:43:44.808Z,3.27
2018-05-03T13:46:13.646Z,3.23
2018-05-03T13:48:42.515Z,2.80
2018-05-03T13:51:11.373Z,3.23
2018-05-03T13:53:41.003Z,3.40
2018-05-03T13:56:09.842Z,3.60
2018-05-03T13:58:38.665Z,2.70
2018-05-03T14:01:07.528Z,2.77
2018-05-03T14:03:36.376Z,2.63
2018-05-03T14:06:05.253Z,2.60
2018-05-03T14:08:34.085Z,2.33
2018-05-03T14:11:02.925Z,2.90
2018-05-03T14:13:31.765Z,2.70
2018-05-03T14:16:00.644Z,2.30
2018-05-03T14:18:29.623Z,2.97
2018-05-03T14:20:58.590Z,2.67
2018-05-03T14:23:27.287Z,3.03
2018-05-03T14:25:56.112Z,3.33
2018-05-03T14:28:25.739Z,3.57
2018-05-03T14:30:54.572Z,3.00
2018-05-03T14:33:23.403Z,3.47
2018-05-03T14:35:52.263Z,3.07
2018-05-03T14:38:21.066Z,3.03
2018-05-03T14:40:50.671Z,3.43
2018-05-03T14:43:20.254Z,3.20
2018-05-03T14:45:49.116Z,3.73
2018-05-03T14:48:17.934Z,3.13
2018-05-03T14:50:46.794Z,3.17
2018-05-03T14:53:15.617Z,3.57
2018-05-03T14:55:45.991Z,4.00
2018-05-03T14:58:14.824Z,3.37
2018-05-03T15:00:43.790Z,3.80
2018-05-03T15:03:12.637Z,3.00
2018-05-03T15:05:42.240Z,3.00
2018-05-03T15:08:11.840Z,3.77
2018-05-03T15:10:41.460Z,3.60
2018-05-03T15:13:10.309Z,2.90
2018-05-03T15:15:39.192Z,3.30
2018-05-03T15:18:08.964Z,3.30
2018-05-03T15:20:37.760Z,3.37
2018-05-03T15:23:07.396Z,3.10
2018-05-03T15:25:36.248Z,3.50
2018-05-03T15:28:05.870Z,3.00
2018-05-03T15:30:35.479Z,4.10
2018-05-03T15:33:05.083Z,4.47
2018-05-03T15:35:34.701Z,3.50
2018-05-03T15:38:04.322Z,3.33
2018-05-03T15:40:33.152Z,2.90
2018-05-03T15:43:02.908Z,3.23
2018-05-03T15:45:32.917Z,3.50
2018-05-03T15:48:02.538Z,3.20
2018-05-03T15:50:31.380Z,3.57
2018-05-03T15:53:00.339Z,3.23
2018-05-03T15:55:29.158Z,3.50
2018-05-03T15:57:58.000Z,3.30
2018-05-03T16:00:26.824Z,3.40
2018-05-03T16:02:55.694Z,3.67
2018-05-03T16:05:24.524Z,3.97
2018-05-03T16:07:54.876Z,3.70
2018-05-03T16:10:24.490Z,3.50
2018-05-03T16:12:54.101Z,3.63
2018-05-03T16:15:22.944Z,3.47
2018-05-03T16:17:52.660Z,4.10
2018-05-03T16:20:21.460Z,3.07
2018-05-03T16:22:50.314Z,3.53
2018-05-03T16:25:19.174Z,3.63
2018-05-03T16:27:48.014Z,3.00
2018-05-03T16:30:17.650Z,3.43
2018-05-03T16:32:46.479Z,3.50
2018-05-03T16:35:15.314Z,3.20
2018-05-03T16:37:44.165Z,3.20
2018-05-03T16:40:13.001Z,3.87
2018-05-03T16:42:41.879Z,3.90
2018-05-03T16:45:11.474Z,3.60
2018-05-03T16:47:40.337Z,3.70
2018-05-03T16:50:09.217Z,3.67
2018-05-03T16:52:39.045Z,4.00
2018-05-03T16:55:07.884Z,4.30
2018-05-03T16:57:36.732Z,3.43
2018-05-03T17:00:07.000Z,3.23
2018-05-03T17:02:35.821Z,3.00
2018-05-03T17:05:04.715Z,3.40
2018-05-03T17:07:34.311Z,3.47
2018-05-03T17:10:03.140Z,4.00
2018-05-03T17:12:32.768Z,4.30
2018-05-03T17:15:01.621Z,3.90
2018-05-03T17:17:31.249Z,4.00
2018-05-03T17:20:00.092Z,3.87
2018-05-03T17:22:28.910Z,5.37
2018-05-03T17:24:58.505Z,3.80
2018-05-03T17:27:28.160Z,4.00
2018-05-03T17:29:56.996Z,3.80
2018-05-03T17:32:26.617Z,4.50
2018-05-03T17:34:56.379Z,3.60
2018-05-03T17:37:25.209Z,3.77
2018-05-03T17:39:54.846Z,3.37
2018-05-03T17:42:23.700Z,4.20
2018-05-03T17:44:52.540Z,3.67
2018-05-03T17:47:21.416Z,3.37
2018-05-03T17:49:50.271Z,3.57
2018-05-03T17:52:19.131Z,3.63
2018-05-03T17:54:47.954Z,3.10
2018-05-03T17:57:17.566Z,3.00
2018-05-03T17:59:47.204Z,2.87
2018-05-03T18:02:16.052Z,3.03
2018-05-03T18:04:44.932Z,3.17
2018-05-03T18:07:13.733Z,2.90
2018-05-03T18:09:42.585Z,2.60
2018-05-03T18:12:11.443Z,3.67
2018-05-03T18:14:40.304Z,2.77
2018-05-03T18:17:09.122Z,2.53
2018-05-03T18:19:38.874Z,2.77
2018-05-03T18:22:07.701Z,3.10
2018-05-03T18:24:36.550Z,2.80
2018-05-03T18:27:05.398Z,2.93
2018-05-03T18:29:35.042Z,3.10
2018-05-03T18:32:03.866Z,2.60
2018-05-03T18:34:32.718Z,3.23
2018-05-03T18:37:01.550Z,3.47
2018-05-03T18:39:30.409Z,3.27
2018-05-03T18:41:59.254Z,3.10
2018-05-03T18:44:28.932Z,3.50
2018-05-03T18:46:57.753Z,3.57
2018-05-03T18:49:27.457Z,3.20
2018-05-03T18:51:57.245Z,3.73
2018-05-03T18:54:26.138Z,3.47
2018-05-03T18:56:54.977Z,3.40
2018-05-03T18:59:23.841Z,3.07
2018-05-03T19:01:52.702Z,3.23
2018-05-03T19:04:21.535Z,4.10
2018-05-03T19:06:51.145Z,3.70
2018-05-03T19:09:19.988Z,3.83
2018-05-03T19:11:48.885Z,3.90
2018-05-03T19:14:17.676Z,3.27
2018-05-03T19:16:46.535Z,4.00
2018-05-03T19:19:15.373Z,3.60
2018-05-03T19:21:44.221Z,3.87
2018-05-03T19:24:13.056Z,3.20
2018-05-03T19:26:42.710Z,4.03
2018-05-03T19:29:11.589Z,4.03
2018-05-03T19:31:41.108Z,3.80
2018-05-03T19:34:09.999Z,3.47
2018-05-03T19:36:38.839Z,3.37
2018-05-03T19:39:08.557Z,4.10
2018-05-03T19:41:38.145Z,3.60
2018-05-03T19:44:07.771Z,4.10
2018-05-03T19:46:37.388Z,4.37
2018-05-03T19:49:06.304Z,4.23
2018-05-03T19:51:35.140Z,4.07
2018-05-03T19:54:03.985Z,3.90
2018-05-03T19:56:32.849Z,4.07
2018-05-03T19:59:01.706Z,4.93
2018-05-03T20:01:30.549Z,6.93
2018-05-03T20:03:59.410Z,4.03
2018-05-03T20:06:28.270Z,3.37
2018-05-03T20:08:57.106Z,3.40
2018-05-03T20:11:25.937Z,3.55
2018-05-03T20:13:55.774Z,3.60
2018-05-03T20:16:25.374Z,5.90
2018-05-03T20:18:54.973Z,3.97
2018-05-03T20:21:23.811Z,2.93
2018-05-03T20:23:52.652Z,3.60
2018-05-03T20:26:21.498Z,3.67
2018-05-03T20:28:50.380Z,3.70
2018-05-03T20:31:19.238Z,3.53
2018-05-03T20:33:48.039Z,3.23
2018-05-03T20:36:16.910Z,6.30
2018-05-03T20:38:46.512Z,6.60
2018-05-03T20:41:15.336Z,4.90
2018-05-03T20:43:44.213Z,4.67
2018-05-03T20:46:13.099Z,7.37
2018-05-03T20:48:41.902Z,10.40
2018-05-03T20:51:10.811Z,12.57
2018-05-03T20:53:39.668Z,8.40
2018-05-03T20:56:08.531Z,6.77
2018-05-03T20:58:37.378Z,8.33
2018-05-03T21:01:06.229Z,5.90
2018-05-03T21:03:35.856Z,3.77
2018-05-03T21:06:04.699Z,3.87
2018-05-03T21:08:34.502Z,4.97
2018-05-03T21:11:04.863Z,5.30
2018-05-03T21:13:34.468Z,5.83
2018-05-03T21:16:03.284Z,5.13
2018-05-03T21:18:32.149Z,5.60
2018-05-03T21:21:01.744Z,5.17
2018-05-03T21:23:30.599Z,4.07
2018-05-03T21:25:59.422Z,3.80
2018-05-03T21:28:28.873Z,3.93
2018-05-03T21:30:57.853Z,3.90
2018-05-03T21:33:26.726Z,4.23
2018-05-03T21:35:56.316Z,4.33
2018-05-03T21:38:25.195Z,5.13
2018-05-03T21:40:54.032Z,4.10
2018-05-03T21:43:22.896Z,4.20
2018-05-03T21:45:52.489Z,4.90
2018-05-03T21:48:21.317Z,4.37
2018-05-03T21:50:50.469Z,4.00
2018-05-03T21:53:19.302Z,5.13
2018-05-03T21:55:48.159Z,4.83
2018-05-03T21:58:16.984Z,4.93
2018-05-03T22:00:45.830Z,4.50
2018-05-03T22:03:14.657Z,5.80
2018-05-03T22:05:43.502Z,5.23
2018-05-03T22:08:12.349Z,6.33
2018-05-03T22:10:41.176Z,6.50
2018-05-03T22:13:11.100Z,5.57
2018-05-03T22:15:40.249Z,5.30
2018-05-03T22:18:09.069Z,5.77
2018-05-03T22:20:38.676Z,6.03
2018-05-03T22:23:08.268Z,5.33
2018-05-03T22:25:37.112Z,6.10
2018-05-03T22:28:05.984Z,6.77
2018-05-03T22:30:34.852Z,5.80
2018-05-03T22:33:04.440Z,5.83
2018-05-03T22:35:33.294Z,5.60
2018-05-03T22:38:02.141Z,6.07
2018-05-03T22:40:31.756Z,6.00
2018-05-03T22:43:00.586Z,6.33
2018-05-03T22:45:29.544Z,5.70
2018-05-03T22:47:58.393Z,6.53
2018-05-03T22:50:27.227Z,5.40
2018-05-03T22:52:56.060Z,6.10
2018-05-03T22:55:24.913Z,5.10
2018-05-03T22:57:53.748Z,5.83
2018-05-03T23:00:24.096Z,6.17
2018-05-03T23:02:53.708Z,5.73
2018-05-03T23:05:23.316Z,6.67
2018-05-03T23:07:52.272Z,5.90
2018-05-03T23:10:21.128Z,7.40
2018-05-03T23:12:49.965Z,6.73
2018-05-03T23:15:18.797Z,6.57
2018-05-03T23:17:47.632Z,6.13
2018-05-03T23:20:16.493Z,6.67
2018-05-03T23:22:45.344Z,6.33
2018-05-03T23:25:14.498Z,6.67
2018-05-03T23:27:43.338Z,6.90
2018-05-03T23:30:13.697Z,7.50
2018-05-03T23:32:43.294Z,7.37
2018-05-03T23:35:12.158Z,7.30
2018-05-03T23:37:41.005Z,6.90
2018-05-03T23:40:09.848Z,7.60
2018-05-03T23:42:38.691Z,7.23
2018-05-03T23:45:07.525Z,7.77
2018-05-03T23:47:37.131Z,7.30
2018-05-03T23:50:06.732Z,7.67
2018-05-03T23:52:36.361Z,7.63
2018-05-03T23:55:05.943Z,6.97
2018-05-03T23:57:35.404Z,7.43
